This is the latest recevied weather packets stored in our database for station/object PA1CD-13. If no packets are shown the sender has not sent any weather packets the latest 10 day(s).
| Time | Temp. | Humidity | Pressure | Rain* | Wind** | Luminosity | Snow |
|---|---|---|---|---|---|---|---|
| 1778243102 | 17.78° C | 47% | 1017.6 hPa | 0 mm | - | 916 W/m² | - |
| 1778242982 | 17.78° C | 47% | 1017.6 hPa | 0 mm | - | 916 W/m² | - |
| 1778242862 | 17.78° C | 46% | 1017.6 hPa | 0 mm | - | 972 W/m² | - |
| 1778242742 | 17.78° C | 46% | 1017.6 hPa | 0 mm | - | 972 W/m² | - |
| 1778242625 | 17.78° C | 46% | 1017.7 hPa | 0 mm | - | 199 W/m² | - |
| 1778242507 | 17.78° C | 45% | 1017.7 hPa | 0 mm | - | 199 W/m² | - |
| 1778242386 | 17.78° C | 45% | 1017.7 hPa | 0 mm | - | 199 W/m² | - |
| 1778242266 | 18.33° C | 45% | 1017.7 hPa | 0 mm | - | 914 W/m² | - |
| 1778242145 | 18.33° C | 45% | 1017.8 hPa | 0 mm | - | 209 W/m² | - |
| 1778242026 | 18.33° C | 48% | 1017.7 hPa | 0 mm | - | 934 W/m² | - |
| 1778241907 | 18.33° C | 46% | 1017.7 hPa | 0 mm | - | 934 W/m² | - |
| 1778241783 | 18.33° C | 46% | 1017.7 hPa | 0 mm | - | 934 W/m² | - |
| 1778241663 | 18.33° C | 46% | 1017.5 hPa | 0 mm | - | 934 W/m² | - |
| 1778241543 | 18.33° C | 47% | 1017.6 hPa | 0 mm | - | 441 W/m² | - |
| 1778241423 | 18.33° C | 44% | 1017.6 hPa | 0 mm | - | 579 W/m² | - |
| 1778241304 | 18.33° C | 44% | 1017.7 hPa | 0 mm | - | 579 W/m² | - |
| 1778241182 | 18.33° C | 47% | 1017.6 hPa | 0 mm | - | 913 W/m² | - |
| 1778241063 | 18.33° C | 47% | 1017.7 hPa | 0 mm | - | 142 W/m² | - |
| 1778240942 | 18.33° C | 48% | 1017.7 hPa | 0 mm | - | 837 W/m² | - |
| 1778240822 | 18.33° C | 45% | 1017.7 hPa | 0 mm | - | 837 W/m² | - |
| 1778240703 | 18.33° C | 45% | 1017.7 hPa | 0 mm | - | 835 W/m² | - |
| 1778240584 | 18.33° C | 45% | 1017.7 hPa | 0 mm | - | 837 W/m² | - |
| 1778240464 | 18.33° C | 45% | 1017.7 hPa | 0 mm | - | 833 W/m² | - |
| 1778240344 | 17.78° C | 45% | 1017.6 hPa | 0 mm | - | 823 W/m² | - |
| 1778240225 | 17.78° C | 44% | 1017.6 hPa | 0 mm | - | 821 W/m² | - |
* Rain latest hour (hover to see other rain measurements)
** Current wind speed in m/s (hover to see current wind gust speed)